National Weather Service Raw Text Product

Displaying AFOS PIL: TAFDSM Received: 2018-01-12 03:32 UTC


802 
FTUS43 KDMX 120332 AAA
TAFDSM
TAF AMD
KDSM 120332Z 1204/1224 33018G24KT 6SM BLSN BKN015
     FM120600 34015G25KT P6SM SCT025
     FM121000 35010KT P6SM SKC=